sensor_id;sensor_type;location;lat;lon;timestamp;temperature;humidity
23637;DHT22;11995;50.842;4.456;2023-05-13T00:01:18;13.80;99.90
23637;DHT22;11995;50.842;4.456;2023-05-13T00:03:45;13.70;99.90
23637;DHT22;11995;50.842;4.456;2023-05-13T00:06:13;13.70;99.90
23637;DHT22;11995;50.842;4.456;2023-05-13T00:08:40;13.70;99.90
23637;DHT22;11995;50.842;4.456;2023-05-13T00:11:08;13.60;99.90
23637;DHT22;11995;50.842;4.456;2023-05-13T00:13:35;13.60;99.90
23637;DHT22;11995;50.842;4.456;2023-05-13T00:16:03;13.60;99.90
23637;DHT22;11995;50.842;4.456;2023-05-13T00:18:31;13.60;99.90
23637;DHT22;11995;50.842;4.456;2023-05-13T00:20:58;13.60;99.90
23637;DHT22;11995;50.842;4.456;2023-05-13T00:23:26;13.50;99.90
23637;DHT22;11995;50.842;4.456;2023-05-13T00:25:53;13.50;99.90
23637;DHT22;11995;50.842;4.456;2023-05-13T00:28:21;13.50;99.90
23637;DHT22;11995;50.842;4.456;2023-05-13T00:30:48;13.40;99.90
23637;DHT22;11995;50.842;4.456;2023-05-13T00:33:16;13.40;99.90
23637;DHT22;11995;50.842;4.456;2023-05-13T00:35:43;13.40;99.90
23637;DHT22;11995;50.842;4.456;2023-05-13T00:38:11;13.30;99.90
23637;DHT22;11995;50.842;4.456;2023-05-13T00:40:39;13.30;99.90
23637;DHT22;11995;50.842;4.456;2023-05-13T00:43:07;13.30;99.90
23637;DHT22;11995;50.842;4.456;2023-05-13T00:45:37;13.30;99.90
23637;DHT22;11995;50.842;4.456;2023-05-13T00:48:06;13.20;99.90
23637;DHT22;11995;50.842;4.456;2023-05-13T00:50:34;13.20;99.90
23637;DHT22;11995;50.842;4.456;2023-05-13T00:53:03;13.10;99.90
23637;DHT22;11995;50.842;4.456;2023-05-13T00:55:30;13.10;99.90
23637;DHT22;11995;50.842;4.456;2023-05-13T00:57:58;13.00;99.90
23637;DHT22;11995;50.842;4.456;2023-05-13T01:00:28;13.00;99.90
23637;DHT22;11995;50.842;4.456;2023-05-13T01:05:58;13.00;99.90
23637;DHT22;11995;50.842;4.456;2023-05-13T01:11:25;12.90;99.90
23637;DHT22;11995;50.842;4.456;2023-05-13T01:13:55;13.00;99.90
23637;DHT22;11995;50.842;4.456;2023-05-13T01:16:34;13.00;99.90
23637;DHT22;11995;50.842;4.456;2023-05-13T01:19:11;13.00;99.90
23637;DHT22;11995;50.842;4.456;2023-05-13T01:21:34;13.00;99.90
23637;DHT22;11995;50.842;4.456;2023-05-13T01:24:02;13.00;99.90
23637;DHT22;11995;50.842;4.456;2023-05-13T01:26:30;12.90;99.90
23637;DHT22;11995;50.842;4.456;2023-05-13T01:28:57;12.90;99.90
23637;DHT22;11995;50.842;4.456;2023-05-13T01:31:25;12.90;99.90
23637;DHT22;11995;50.842;4.456;2023-05-13T01:33:53;12.90;99.90
23637;DHT22;11995;50.842;4.456;2023-05-13T01:36:20;12.90;99.90
23637;DHT22;11995;50.842;4.456;2023-05-13T01:38:48;13.00;99.90
23637;DHT22;11995;50.842;4.456;2023-05-13T01:41:16;12.90;99.90
23637;DHT22;11995;50.842;4.456;2023-05-13T01:43:44;12.90;99.90
23637;DHT22;11995;50.842;4.456;2023-05-13T01:46:12;12.90;99.90
23637;DHT22;11995;50.842;4.456;2023-05-13T01:48:39;13.00;99.90
23637;DHT22;11995;50.842;4.456;2023-05-13T01:51:08;13.00;99.90
23637;DHT22;11995;50.842;4.456;2023-05-13T01:53:35;12.90;99.90
23637;DHT22;11995;50.842;4.456;2023-05-13T01:56:03;12.90;99.90
23637;DHT22;11995;50.842;4.456;2023-05-13T01:58:32;12.90;99.90
23637;DHT22;11995;50.842;4.456;2023-05-13T02:01:00;13.00;99.90
23637;DHT22;11995;50.842;4.456;2023-05-13T02:03:29;12.90;99.90
23637;DHT22;11995;50.842;4.456;2023-05-13T02:05:56;12.90;99.90
23637;DHT22;11995;50.842;4.456;2023-05-13T02:08:24;12.90;99.90
23637;DHT22;11995;50.842;4.456;2023-05-13T02:10:58;12.90;99.90
23637;DHT22;11995;50.842;4.456;2023-05-13T02:13:26;12.90;99.90
23637;DHT22;11995;50.842;4.456;2023-05-13T02:15:54;12.90;99.90
23637;DHT22;11995;50.842;4.456;2023-05-13T02:18:22;12.90;99.90
23637;DHT22;11995;50.842;4.456;2023-05-13T02:20:49;12.80;99.90
23637;DHT22;11995;50.842;4.456;2023-05-13T02:23:17;12.80;99.90
23637;DHT22;11995;50.842;4.456;2023-05-13T02:25:46;12.70;99.90
23637;DHT22;11995;50.842;4.456;2023-05-13T02:28:16;12.80;99.90
23637;DHT22;11995;50.842;4.456;2023-05-13T02:30:44;12.80;99.90
23637;DHT22;11995;50.842;4.456;2023-05-13T02:33:12;12.70;99.90
23637;DHT22;11995;50.842;4.456;2023-05-13T02:35:39;12.70;99.90
23637;DHT22;11995;50.842;4.456;2023-05-13T02:40:55;12.60;99.90
23637;DHT22;11995;50.842;4.456;2023-05-13T02:43:22;12.70;99.90
23637;DHT22;11995;50.842;4.456;2023-05-13T02:45:50;12.70;99.90
23637;DHT22;11995;50.842;4.456;2023-05-13T02:48:18;12.70;99.90
23637;DHT22;11995;50.842;4.456;2023-05-13T02:50:45;12.70;99.90
23637;DHT22;11995;50.842;4.456;2023-05-13T02:53:13;12.70;99.90
23637;DHT22;11995;50.842;4.456;2023-05-13T02:55:40;12.70;99.90
23637;DHT22;11995;50.842;4.456;2023-05-13T02:58:08;12.70;99.90
23637;DHT22;11995;50.842;4.456;2023-05-13T03:00:36;12.80;99.90
23637;DHT22;11995;50.842;4.456;2023-05-13T03:03:03;12.80;99.90
23637;DHT22;11995;50.842;4.456;2023-05-13T03:05:31;12.70;99.90
23637;DHT22;11995;50.842;4.456;2023-05-13T03:07:58;12.80;99.90
23637;DHT22;11995;50.842;4.456;2023-05-13T03:10:26;12.80;99.90
23637;DHT22;11995;50.842;4.456;2023-05-13T03:12:53;12.80;99.90
23637;DHT22;11995;50.842;4.456;2023-05-13T03:15:21;12.80;99.90
23637;DHT22;11995;50.842;4.456;2023-05-13T03:17:49;12.80;99.90
23637;DHT22;11995;50.842;4.456;2023-05-13T03:20:16;12.90;99.90
23637;DHT22;11995;50.842;4.456;2023-05-13T03:22:44;12.80;99.90
23637;DHT22;11995;50.842;4.456;2023-05-13T03:25:11;12.80;99.90
23637;DHT22;11995;50.842;4.456;2023-05-13T03:27:39;12.80;99.90
23637;DHT22;11995;50.842;4.456;2023-05-13T03:30:07;12.90;99.90
23637;DHT22;11995;50.842;4.456;2023-05-13T03:32:35;12.90;99.90
23637;DHT22;11995;50.842;4.456;2023-05-13T03:35:02;12.90;99.90
23637;DHT22;11995;50.842;4.456;2023-05-13T03:37:30;12.90;99.90
23637;DHT22;11995;50.842;4.456;2023-05-13T03:39:57;12.80;99.90
23637;DHT22;11995;50.842;4.456;2023-05-13T03:42:25;12.80;99.90
23637;DHT22;11995;50.842;4.456;2023-05-13T03:44:53;12.80;99.90
23637;DHT22;11995;50.842;4.456;2023-05-13T03:47:22;12.70;99.90
23637;DHT22;11995;50.842;4.456;2023-05-13T03:49:50;12.70;99.90
23637;DHT22;11995;50.842;4.456;2023-05-13T03:52:18;12.60;99.90
23637;DHT22;11995;50.842;4.456;2023-05-13T03:54:45;12.60;99.90
23637;DHT22;11995;50.842;4.456;2023-05-13T03:57:14;12.60;99.90
23637;DHT22;11995;50.842;4.456;2023-05-13T03:59:41;12.50;99.90
23637;DHT22;11995;50.842;4.456;2023-05-13T04:02:09;12.50;99.90
23637;DHT22;11995;50.842;4.456;2023-05-13T04:04:36;12.50;99.90
23637;DHT22;11995;50.842;4.456;2023-05-13T04:07:04;12.40;99.90
23637;DHT22;11995;50.842;4.456;2023-05-13T04:09:31;12.40;99.90
23637;DHT22;11995;50.842;4.456;2023-05-13T04:11:59;12.40;99.90
23637;DHT22;11995;50.842;4.456;2023-05-13T04:14:28;12.40;99.90
23637;DHT22;11995;50.842;4.456;2023-05-13T04:16:56;12.40;99.90
23637;DHT22;11995;50.842;4.456;2023-05-13T04:19:23;12.40;99.90
23637;DHT22;11995;50.842;4.456;2023-05-13T04:21:51;12.40;99.90
23637;DHT22;11995;50.842;4.456;2023-05-13T04:24:18;12.40;99.90
23637;DHT22;11995;50.842;4.456;2023-05-13T04:26:47;12.40;99.90
23637;DHT22;11995;50.842;4.456;2023-05-13T04:29:15;12.40;99.90
23637;DHT22;11995;50.842;4.456;2023-05-13T04:31:44;12.50;99.90
23637;DHT22;11995;50.842;4.456;2023-05-13T04:34:11;12.50;99.90
23637;DHT22;11995;50.842;4.456;2023-05-13T04:36:39;12.60;99.90
23637;DHT22;11995;50.842;4.456;2023-05-13T04:39:06;12.60;99.90
23637;DHT22;11995;50.842;4.456;2023-05-13T04:41:34;12.60;99.90
23637;DHT22;11995;50.842;4.456;2023-05-13T04:44:01;12.60;99.90
23637;DHT22;11995;50.842;4.456;2023-05-13T04:46:30;12.60;99.90
23637;DHT22;11995;50.842;4.456;2023-05-13T04:48:58;12.70;99.90
23637;DHT22;11995;50.842;4.456;2023-05-13T04:51:26;12.80;99.90
23637;DHT22;11995;50.842;4.456;2023-05-13T04:53:53;12.80;99.90
23637;DHT22;11995;50.842;4.456;2023-05-13T04:56:21;12.90;99.90
23637;DHT22;11995;50.842;4.456;2023-05-13T04:58:48;12.90;99.90
23637;DHT22;11995;50.842;4.456;2023-05-13T05:01:17;12.90;99.90
23637;DHT22;11995;50.842;4.456;2023-05-13T05:03:44;13.00;99.90
23637;DHT22;11995;50.842;4.456;2023-05-13T05:06:12;13.00;99.90
23637;DHT22;11995;50.842;4.456;2023-05-13T05:08:39;13.20;99.90
23637;DHT22;11995;50.842;4.456;2023-05-13T05:11:07;13.30;99.90
23637;DHT22;11995;50.842;4.456;2023-05-13T05:13:35;13.50;99.90
23637;DHT22;11995;50.842;4.456;2023-05-13T05:16:03;13.60;99.90
23637;DHT22;11995;50.842;4.456;2023-05-13T05:18:30;13.70;99.90
23637;DHT22;11995;50.842;4.456;2023-05-13T05:20:58;13.70;99.90
23637;DHT22;11995;50.842;4.456;2023-05-13T05:23:26;13.70;99.90
23637;DHT22;11995;50.842;4.456;2023-05-13T05:25:54;13.80;99.90
23637;DHT22;11995;50.842;4.456;2023-05-13T05:28:21;13.90;99.90
23637;DHT22;11995;50.842;4.456;2023-05-13T05:30:49;14.10;99.90
23637;DHT22;11995;50.842;4.456;2023-05-13T05:33:17;14.20;99.90
23637;DHT22;11995;50.842;4.456;2023-05-13T05:35:45;14.30;99.90
23637;DHT22;11995;50.842;4.456;2023-05-13T05:38:13;14.30;99.90
23637;DHT22;11995;50.842;4.456;2023-05-13T05:40:43;14.40;99.90
23637;DHT22;11995;50.842;4.456;2023-05-13T05:43:12;14.60;99.90
23637;DHT22;11995;50.842;4.456;2023-05-13T05:45:39;14.70;99.90
23637;DHT22;11995;50.842;4.456;2023-05-13T05:48:09;14.80;99.90
23637;DHT22;11995;50.842;4.456;2023-05-13T05:50:36;15.10;99.90
23637;DHT22;11995;50.842;4.456;2023-05-13T05:53:04;15.10;99.90
23637;DHT22;11995;50.842;4.456;2023-05-13T05:55:32;15.20;99.90
23637;DHT22;11995;50.842;4.456;2023-05-13T05:58:02;15.40;99.90
23637;DHT22;11995;50.842;4.456;2023-05-13T06:00:31;15.50;99.90
23637;DHT22;11995;50.842;4.456;2023-05-13T06:03:01;15.70;99.90
23637;DHT22;11995;50.842;4.456;2023-05-13T06:05:29;15.90;99.90
23637;DHT22;11995;50.842;4.456;2023-05-13T06:07:56;15.90;99.90
23637;DHT22;11995;50.842;4.456;2023-05-13T06:10:24;15.90;99.90
23637;DHT22;11995;50.842;4.456;2023-05-13T06:12:51;15.80;99.90
23637;DHT22;11995;50.842;4.456;2023-05-13T06:15:19;15.80;99.90
23637;DHT22;11995;50.842;4.456;2023-05-13T06:17:47;15.80;99.90
23637;DHT22;11995;50.842;4.456;2023-05-13T06:20:14;15.70;99.90
23637;DHT22;11995;50.842;4.456;2023-05-13T06:22:42;15.90;99.90
23637;DHT22;11995;50.842;4.456;2023-05-13T06:25:09;16.20;99.90
23637;DHT22;11995;50.842;4.456;2023-05-13T06:27:37;16.50;99.90
23637;DHT22;11995;50.842;4.456;2023-05-13T06:30:05;16.60;99.90
23637;DHT22;11995;50.842;4.456;2023-05-13T06:32:33;16.90;99.90
23637;DHT22;11995;50.842;4.456;2023-05-13T06:35:01;17.40;99.90
23637;DHT22;11995;50.842;4.456;2023-05-13T06:37:28;18.00;99.90
23637;DHT22;11995;50.842;4.456;2023-05-13T06:39:56;17.90;99.90
23637;DHT22;11995;50.842;4.456;2023-05-13T06:42:24;18.00;99.90
23637;DHT22;11995;50.842;4.456;2023-05-13T06:44:51;18.20;99.90
23637;DHT22;11995;50.842;4.456;2023-05-13T06:47:19;18.30;99.90
23637;DHT22;11995;50.842;4.456;2023-05-13T06:49:46;18.40;99.90
23637;DHT22;11995;50.842;4.456;2023-05-13T06:52:14;18.30;99.90
23637;DHT22;11995;50.842;4.456;2023-05-13T06:54:41;18.30;99.90
23637;DHT22;11995;50.842;4.456;2023-05-13T06:57:09;18.20;99.90
23637;DHT22;11995;50.842;4.456;2023-05-13T06:59:37;18.10;99.90
23637;DHT22;11995;50.842;4.456;2023-05-13T07:02:04;18.30;99.90
23637;DHT22;11995;50.842;4.456;2023-05-13T07:04:34;18.40;99.90
23637;DHT22;11995;50.842;4.456;2023-05-13T07:07:01;18.50;99.90
23637;DHT22;11995;50.842;4.456;2023-05-13T07:09:29;18.40;99.90
23637;DHT22;11995;50.842;4.456;2023-05-13T07:11:56;18.40;99.90
23637;DHT22;11995;50.842;4.456;2023-05-13T07:14:24;18.60;99.90
23637;DHT22;11995;50.842;4.456;2023-05-13T07:16:51;18.50;99.90
23637;DHT22;11995;50.842;4.456;2023-05-13T07:19:19;18.70;99.90
23637;DHT22;11995;50.842;4.456;2023-05-13T07:21:47;18.30;99.90
23637;DHT22;11995;50.842;4.456;2023-05-13T07:24:14;18.30;99.90
23637;DHT22;11995;50.842;4.456;2023-05-13T07:26:42;18.10;99.90
23637;DHT22;11995;50.842;4.456;2023-05-13T07:29:09;18.10;99.90
23637;DHT22;11995;50.842;4.456;2023-05-13T07:31:37;18.10;99.90
23637;DHT22;11995;50.842;4.456;2023-05-13T07:34:04;18.30;99.90
23637;DHT22;11995;50.842;4.456;2023-05-13T07:36:32;18.40;99.90
23637;DHT22;11995;50.842;4.456;2023-05-13T07:39:00;18.40;99.90
23637;DHT22;11995;50.842;4.456;2023-05-13T07:41:28;18.50;99.90
23637;DHT22;11995;50.842;4.456;2023-05-13T07:43:55;18.50;99.90
23637;DHT22;11995;50.842;4.456;2023-05-13T07:46:23;18.50;99.90
23637;DHT22;11995;50.842;4.456;2023-05-13T07:48:50;18.70;99.90
23637;DHT22;11995;50.842;4.456;2023-05-13T07:51:18;18.70;99.90
23637;DHT22;11995;50.842;4.456;2023-05-13T07:53:45;18.50;99.90
23637;DHT22;11995;50.842;4.456;2023-05-13T07:56:13;18.40;99.90
23637;DHT22;11995;50.842;4.456;2023-05-13T07:58:40;18.10;99.90
23637;DHT22;11995;50.842;4.456;2023-05-13T08:01:08;18.10;99.90
23637;DHT22;11995;50.842;4.456;2023-05-13T08:03:35;18.20;99.90
23637;DHT22;11995;50.842;4.456;2023-05-13T08:06:03;18.60;99.90
23637;DHT22;11995;50.842;4.456;2023-05-13T08:08:33;18.70;99.90
23637;DHT22;11995;50.842;4.456;2023-05-13T08:11:01;18.60;99.90
23637;DHT22;11995;50.842;4.456;2023-05-13T08:13:28;18.50;99.90
23637;DHT22;11995;50.842;4.456;2023-05-13T08:15:58;18.40;99.90
23637;DHT22;11995;50.842;4.456;2023-05-13T08:18:25;18.50;99.90
23637;DHT22;11995;50.842;4.456;2023-05-13T08:20:52;18.70;99.90
23637;DHT22;11995;50.842;4.456;2023-05-13T08:23:20;18.80;99.90
23637;DHT22;11995;50.842;4.456;2023-05-13T08:25:47;18.90;99.90
23637;DHT22;11995;50.842;4.456;2023-05-13T08:28:15;19.00;99.90
23637;DHT22;11995;50.842;4.456;2023-05-13T08:30:42;19.10;99.90
23637;DHT22;11995;50.842;4.456;2023-05-13T08:33:10;19.20;99.90
23637;DHT22;11995;50.842;4.456;2023-05-13T08:35:38;19.20;99.90
23637;DHT22;11995;50.842;4.456;2023-05-13T08:38:07;19.20;99.90
23637;DHT22;11995;50.842;4.456;2023-05-13T08:40:34;19.10;99.90
23637;DHT22;11995;50.842;4.456;2023-05-13T08:43:03;18.80;99.90
23637;DHT22;11995;50.842;4.456;2023-05-13T08:45:33;18.80;99.90
23637;DHT22;11995;50.842;4.456;2023-05-13T08:48:02;18.90;99.90
23637;DHT22;11995;50.842;4.456;2023-05-13T08:50:30;18.80;99.90
23637;DHT22;11995;50.842;4.456;2023-05-13T08:52:58;18.80;99.90
23637;DHT22;11995;50.842;4.456;2023-05-13T08:55:29;19.10;99.90
23637;DHT22;11995;50.842;4.456;2023-05-13T08:57:56;19.30;99.90
23637;DHT22;11995;50.842;4.456;2023-05-13T09:00:24;19.40;99.90
23637;DHT22;11995;50.842;4.456;2023-05-13T09:02:51;19.40;99.90
23637;DHT22;11995;50.842;4.456;2023-05-13T09:05:20;19.40;99.90
23637;DHT22;11995;50.842;4.456;2023-05-13T09:07:47;19.20;99.90
23637;DHT22;11995;50.842;4.456;2023-05-13T09:10:16;19.20;99.90
23637;DHT22;11995;50.842;4.456;2023-05-13T09:15:16;19.40;99.90
23637;DHT22;11995;50.842;4.456;2023-05-13T09:20:33;19.40;99.90
23637;DHT22;11995;50.842;4.456;2023-05-13T09:23:02;19.40;99.90
23637;DHT22;11995;50.842;4.456;2023-05-13T09:25:30;19.40;99.90
23637;DHT22;11995;50.842;4.456;2023-05-13T09:28:00;19.50;99.90
23637;DHT22;11995;50.842;4.456;2023-05-13T09:30:31;19.60;99.90
23637;DHT22;11995;50.842;4.456;2023-05-13T09:35:37;19.70;99.90
23637;DHT22;11995;50.842;4.456;2023-05-13T09:38:15;19.80;99.90
23637;DHT22;11995;50.842;4.456;2023-05-13T09:40:54;19.80;99.90
23637;DHT22;11995;50.842;4.456;2023-05-13T09:43:27;19.70;99.90
23637;DHT22;11995;50.842;4.456;2023-05-13T09:45:56;19.80;99.90
23637;DHT22;11995;50.842;4.456;2023-05-13T09:48:26;19.80;99.90
23637;DHT22;11995;50.842;4.456;2023-05-13T09:50:55;20.00;99.90
23637;DHT22;11995;50.842;4.456;2023-05-13T09:53:24;20.10;99.90
23637;DHT22;11995;50.842;4.456;2023-05-13T09:55:54;20.00;99.90
23637;DHT22;11995;50.842;4.456;2023-05-13T09:58:24;19.90;99.90
23637;DHT22;11995;50.842;4.456;2023-05-13T10:00:54;20.00;99.90
23637;DHT22;11995;50.842;4.456;2023-05-13T10:03:22;20.10;99.90
23637;DHT22;11995;50.842;4.456;2023-05-13T10:05:50;20.10;99.90
23637;DHT22;11995;50.842;4.456;2023-05-13T10:08:19;20.10;99.90
23637;DHT22;11995;50.842;4.456;2023-05-13T10:10:49;20.10;99.90
23637;DHT22;11995;50.842;4.456;2023-05-13T10:13:19;20.00;99.90
23637;DHT22;11995;50.842;4.456;2023-05-13T10:15:52;20.10;99.90
23637;DHT22;11995;50.842;4.456;2023-05-13T10:18:21;20.20;99.90
23637;DHT22;11995;50.842;4.456;2023-05-13T10:20:49;20.30;99.90
23637;DHT22;11995;50.842;4.456;2023-05-13T10:23:20;20.40;99.90
23637;DHT22;11995;50.842;4.456;2023-05-13T10:25:48;20.30;99.90
23637;DHT22;11995;50.842;4.456;2023-05-13T10:28:17;20.40;99.90
23637;DHT22;11995;50.842;4.456;2023-05-13T10:30:45;20.50;99.90
23637;DHT22;11995;50.842;4.456;2023-05-13T10:33:15;20.40;99.90
23637;DHT22;11995;50.842;4.456;2023-05-13T10:43:57;20.60;99.90
23637;DHT22;11995;50.842;4.456;2023-05-13T10:46:25;20.40;99.90
23637;DHT22;11995;50.842;4.456;2023-05-13T10:48:58;20.40;99.90
23637;DHT22;11995;50.842;4.456;2023-05-13T10:51:26;20.60;99.90
23637;DHT22;11995;50.842;4.456;2023-05-13T10:53:56;20.80;99.90
23637;DHT22;11995;50.842;4.456;2023-05-13T10:56:26;21.00;99.90
23637;DHT22;11995;50.842;4.456;2023-05-13T10:59:07;21.20;99.90
23637;DHT22;11995;50.842;4.456;2023-05-13T11:01:36;21.10;99.90
23637;DHT22;11995;50.842;4.456;2023-05-13T11:04:05;20.90;99.90
23637;DHT22;11995;50.842;4.456;2023-05-13T11:06:35;20.90;99.90
23637;DHT22;11995;50.842;4.456;2023-05-13T11:11:52;21.00;99.90
23637;DHT22;11995;50.842;4.456;2023-05-13T11:14:22;20.90;99.90
23637;DHT22;11995;50.842;4.456;2023-05-13T11:19:35;20.90;99.90
23637;DHT22;11995;50.842;4.456;2023-05-13T11:22:13;20.80;99.90
23637;DHT22;11995;50.842;4.456;2023-05-13T11:24:44;20.90;99.90
23637;DHT22;11995;50.842;4.456;2023-05-13T11:27:17;20.90;99.90
23637;DHT22;11995;50.842;4.456;2023-05-13T11:29:49;20.90;99.90
23637;DHT22;11995;50.842;4.456;2023-05-13T11:35:27;21.10;99.90
23637;DHT22;11995;50.842;4.456;2023-05-13T11:37:55;21.20;99.90
23637;DHT22;11995;50.842;4.456;2023-05-13T11:40:27;21.30;99.90
23637;DHT22;11995;50.842;4.456;2023-05-13T11:42:56;21.50;99.90
23637;DHT22;11995;50.842;4.456;2023-05-13T11:45:24;21.40;99.90
23637;DHT22;11995;50.842;4.456;2023-05-13T11:47:53;21.60;99.90
23637;DHT22;11995;50.842;4.456;2023-05-13T11:50:25;21.60;99.90
23637;DHT22;11995;50.842;4.456;2023-05-13T11:52:55;21.70;99.90
23637;DHT22;11995;50.842;4.456;2023-05-13T11:55:28;21.90;99.90
23637;DHT22;11995;50.842;4.456;2023-05-13T11:57:57;21.80;99.90
23637;DHT22;11995;50.842;4.456;2023-05-13T12:00:26;21.80;99.90
23637;DHT22;11995;50.842;4.456;2023-05-13T12:02:55;21.80;99.90
23637;DHT22;11995;50.842;4.456;2023-05-13T12:05:23;21.80;99.90
23637;DHT22;11995;50.842;4.456;2023-05-13T12:07:55;21.80;99.90
23637;DHT22;11995;50.842;4.456;2023-05-13T12:10:22;21.80;99.90
23637;DHT22;11995;50.842;4.456;2023-05-13T12:12:50;22.00;99.90
23637;DHT22;11995;50.842;4.456;2023-05-13T12:15:19;22.20;99.90
23637;DHT22;11995;50.842;4.456;2023-05-13T12:17:48;22.20;99.90
23637;DHT22;11995;50.842;4.456;2023-05-13T12:20:20;22.30;99.90
23637;DHT22;11995;50.842;4.456;2023-05-13T12:22:50;22.20;99.90
23637;DHT22;11995;50.842;4.456;2023-05-13T12:28:22;22.40;99.90
23637;DHT22;11995;50.842;4.456;2023-05-13T12:30:51;22.30;99.90
23637;DHT22;11995;50.842;4.456;2023-05-13T12:33:22;22.20;99.90
23637;DHT22;11995;50.842;4.456;2023-05-13T12:38:51;22.40;99.90
23637;DHT22;11995;50.842;4.456;2023-05-13T12:41:11;22.30;99.90
23637;DHT22;11995;50.842;4.456;2023-05-13T12:43:40;22.10;99.90
23637;DHT22;11995;50.842;4.456;2023-05-13T12:46:08;22.10;99.90
23637;DHT22;11995;50.842;4.456;2023-05-13T12:48:36;22.40;99.90
23637;DHT22;11995;50.842;4.456;2023-05-13T12:51:04;22.50;99.90
23637;DHT22;11995;50.842;4.456;2023-05-13T12:53:31;22.70;99.90
23637;DHT22;11995;50.842;4.456;2023-05-13T12:55:59;22.90;99.90
23637;DHT22;11995;50.842;4.456;2023-05-13T12:58:27;22.80;99.90
23637;DHT22;11995;50.842;4.456;2023-05-13T13:00:55;22.60;99.40
23637;DHT22;11995;50.842;4.456;2023-05-13T13:03:22;22.50;99.90
23637;DHT22;11995;50.842;4.456;2023-05-13T13:05:50;22.40;99.80
23637;DHT22;11995;50.842;4.456;2023-05-13T13:08:17;22.30;98.80
23637;DHT22;11995;50.842;4.456;2023-05-13T13:10:45;22.30;99.00
23637;DHT22;11995;50.842;4.456;2023-05-13T13:13:12;22.40;98.30
23637;DHT22;11995;50.842;4.456;2023-05-13T13:15:40;22.20;96.60
23637;DHT22;11995;50.842;4.456;2023-05-13T13:18:08;22.20;96.20
23637;DHT22;11995;50.842;4.456;2023-05-13T13:20:35;22.20;95.40
23637;DHT22;11995;50.842;4.456;2023-05-13T13:23:03;22.30;97.20
23637;DHT22;11995;50.842;4.456;2023-05-13T13:25:30;22.30;97.30
23637;DHT22;11995;50.842;4.456;2023-05-13T13:27:58;22.20;97.70
23637;DHT22;11995;50.842;4.456;2023-05-13T13:30:26;22.00;98.80
23637;DHT22;11995;50.842;4.456;2023-05-13T13:32:53;22.10;99.00
23637;DHT22;11995;50.842;4.456;2023-05-13T13:35:21;22.20;98.40
23637;DHT22;11995;50.842;4.456;2023-05-13T13:37:48;22.20;96.90
23637;DHT22;11995;50.842;4.456;2023-05-13T13:40:16;22.30;95.90
23637;DHT22;11995;50.842;4.456;2023-05-13T13:42:44;22.30;96.00
23637;DHT22;11995;50.842;4.456;2023-05-13T13:45:12;22.30;96.50
23637;DHT22;11995;50.842;4.456;2023-05-13T13:47:41;22.50;97.10
23637;DHT22;11995;50.842;4.456;2023-05-13T13:50:09;22.50;96.80
23637;DHT22;11995;50.842;4.456;2023-05-13T13:52:37;22.20;96.30
23637;DHT22;11995;50.842;4.456;2023-05-13T13:55:05;22.20;96.00
23637;DHT22;11995;50.842;4.456;2023-05-13T13:57:33;22.00;95.80
23637;DHT22;11995;50.842;4.456;2023-05-13T14:00:00;22.10;96.60
23637;DHT22;11995;50.842;4.456;2023-05-13T14:02:28;22.20;95.50
23637;DHT22;11995;50.842;4.456;2023-05-13T14:04:55;22.30;95.10
23637;DHT22;11995;50.842;4.456;2023-05-13T14:07:23;22.30;94.60
23637;DHT22;11995;50.842;4.456;2023-05-13T14:09:50;22.50;95.10
23637;DHT22;11995;50.842;4.456;2023-05-13T14:12:18;22.40;95.40
23637;DHT22;11995;50.842;4.456;2023-05-13T14:14:45;22.50;95.00
23637;DHT22;11995;50.842;4.456;2023-05-13T14:17:13;22.50;94.70
23637;DHT22;11995;50.842;4.456;2023-05-13T14:19:41;22.40;94.60
23637;DHT22;11995;50.842;4.456;2023-05-13T14:22:08;22.30;94.90
23637;DHT22;11995;50.842;4.456;2023-05-13T14:24:36;22.30;93.00
23637;DHT22;11995;50.842;4.456;2023-05-13T14:27:03;22.30;93.60
23637;DHT22;11995;50.842;4.456;2023-05-13T14:29:31;22.20;93.90
23637;DHT22;11995;50.842;4.456;2023-05-13T14:32:00;22.30;94.70
23637;DHT22;11995;50.842;4.456;2023-05-13T14:34:31;22.30;93.30
23637;DHT22;11995;50.842;4.456;2023-05-13T14:36:58;22.20;92.40
23637;DHT22;11995;50.842;4.456;2023-05-13T14:39:26;22.10;92.20
23637;DHT22;11995;50.842;4.456;2023-05-13T14:41:53;22.20;92.60
23637;DHT22;11995;50.842;4.456;2023-05-13T14:44:21;22.20;92.70
23637;DHT22;11995;50.842;4.456;2023-05-13T14:46:49;22.30;93.60
23637;DHT22;11995;50.842;4.456;2023-05-13T14:49:17;22.30;93.60
23637;DHT22;11995;50.842;4.456;2023-05-13T14:51:44;22.40;93.70
23637;DHT22;11995;50.842;4.456;2023-05-13T14:54:12;22.40;94.50
23637;DHT22;11995;50.842;4.456;2023-05-13T14:56:39;22.50;93.70
23637;DHT22;11995;50.842;4.456;2023-05-13T14:59:07;22.30;93.40
23637;DHT22;11995;50.842;4.456;2023-05-13T15:01:35;22.40;92.90
23637;DHT22;11995;50.842;4.456;2023-05-13T15:04:02;22.30;92.60
23637;DHT22;11995;50.842;4.456;2023-05-13T15:06:30;22.40;93.10
23637;DHT22;11995;50.842;4.456;2023-05-13T15:08:58;22.70;92.20
23637;DHT22;11995;50.842;4.456;2023-05-13T15:11:26;22.60;92.40
23637;DHT22;11995;50.842;4.456;2023-05-13T15:13:54;22.60;91.40
23637;DHT22;11995;50.842;4.456;2023-05-13T15:16:21;22.60;91.40
23637;DHT22;11995;50.842;4.456;2023-05-13T15:18:49;22.70;91.90
23637;DHT22;11995;50.842;4.456;2023-05-13T15:21:16;22.80;92.00
23637;DHT22;11995;50.842;4.456;2023-05-13T15:23:45;22.80;92.20
23637;DHT22;11995;50.842;4.456;2023-05-13T15:26:13;22.70;93.20
23637;DHT22;11995;50.842;4.456;2023-05-13T15:28:40;22.50;95.70
23637;DHT22;11995;50.842;4.456;2023-05-13T15:31:08;22.50;95.00
23637;DHT22;11995;50.842;4.456;2023-05-13T15:33:36;22.20;95.30
23637;DHT22;11995;50.842;4.456;2023-05-13T15:36:03;22.10;95.20
23637;DHT22;11995;50.842;4.456;2023-05-13T15:38:31;22.00;95.70
23637;DHT22;11995;50.842;4.456;2023-05-13T15:40:59;21.90;95.20
23637;DHT22;11995;50.842;4.456;2023-05-13T15:43:26;21.90;95.40
23637;DHT22;11995;50.842;4.456;2023-05-13T15:45:56;21.90;95.90
23637;DHT22;11995;50.842;4.456;2023-05-13T15:48:24;21.80;95.50
23637;DHT22;11995;50.842;4.456;2023-05-13T15:50:52;21.70;96.70
23637;DHT22;11995;50.842;4.456;2023-05-13T15:53:20;21.60;96.90
23637;DHT22;11995;50.842;4.456;2023-05-13T15:55:47;21.70;97.40
23637;DHT22;11995;50.842;4.456;2023-05-13T15:58:15;21.70;96.90
23637;DHT22;11995;50.842;4.456;2023-05-13T16:00:42;21.70;97.20
23637;DHT22;11995;50.842;4.456;2023-05-13T16:03:10;21.70;97.30
23637;DHT22;11995;50.842;4.456;2023-05-13T16:05:38;21.80;97.30
23637;DHT22;11995;50.842;4.456;2023-05-13T16:08:05;22.00;97.10
23637;DHT22;11995;50.842;4.456;2023-05-13T16:10:33;21.90;97.10
23637;DHT22;11995;50.842;4.456;2023-05-13T16:13:01;21.80;97.30
23637;DHT22;11995;50.842;4.456;2023-05-13T16:15:29;21.90;97.30